sensor_id;sensor_type;location;lat;lon;timestamp;P1;durP1;ratioP1;P2;durP2;ratioP2
68072;SDS011;54862;51.502;7.446;2023-08-06T00:01:45;2.45;;;1.83;;
68072;SDS011;54862;51.502;7.446;2023-08-06T00:04:11;4.85;;;2.33;;
68072;SDS011;54862;51.502;7.446;2023-08-06T00:06:37;5.93;;;2.47;;
68072;SDS011;54862;51.502;7.446;2023-08-06T00:09:02;3.33;;;2.00;;
68072;SDS011;54862;51.502;7.446;2023-08-06T00:11:28;4.63;;;2.50;;
68072;SDS011;54862;51.502;7.446;2023-08-06T00:13:54;3.35;;;2.10;;
68072;SDS011;54862;51.502;7.446;2023-08-06T00:16:20;5.22;;;2.22;;
68072;SDS011;54862;51.502;7.446;2023-08-06T00:18:46;5.68;;;2.30;;
68072;SDS011;54862;51.502;7.446;2023-08-06T00:21:15;3.83;;;1.98;;
68072;SDS011;54862;51.502;7.446;2023-08-06T00:23:41;4.13;;;2.22;;
68072;SDS011;54862;51.502;7.446;2023-08-06T00:26:07;3.08;;;1.75;;
68072;SDS011;54862;51.502;7.446;2023-08-06T00:28:33;4.93;;;2.25;;
68072;SDS011;54862;51.502;7.446;2023-08-06T00:30:59;5.07;;;2.38;;
68072;SDS011;54862;51.502;7.446;2023-08-06T00:33:27;4.50;;;2.20;;
68072;SDS011;54862;51.502;7.446;2023-08-06T00:35:55;5.53;;;2.17;;
68072;SDS011;54862;51.502;7.446;2023-08-06T00:38:21;5.13;;;2.13;;
68072;SDS011;54862;51.502;7.446;2023-08-06T00:40:50;2.80;;;2.00;;
68072;SDS011;54862;51.502;7.446;2023-08-06T00:43:16;3.20;;;2.00;;
68072;SDS011;54862;51.502;7.446;2023-08-06T00:45:42;4.22;;;2.13;;
68072;SDS011;54862;51.502;7.446;2023-08-06T00:48:11;4.72;;;2.17;;
68072;SDS011;54862;51.502;7.446;2023-08-06T00:50:37;3.80;;;2.28;;
68072;SDS011;54862;51.502;7.446;2023-08-06T00:53:03;4.20;;;2.20;;
68072;SDS011;54862;51.502;7.446;2023-08-06T00:55:29;2.90;;;1.73;;
68072;SDS011;54862;51.502;7.446;2023-08-06T00:57:55;3.33;;;2.10;;
68072;SDS011;54862;51.502;7.446;2023-08-06T01:00:21;4.45;;;2.03;;
68072;SDS011;54862;51.502;7.446;2023-08-06T01:02:48;2.92;;;2.00;;
68072;SDS011;54862;51.502;7.446;2023-08-06T01:05:14;3.28;;;2.00;;
68072;SDS011;54862;51.502;7.446;2023-08-06T01:13:37;4.10;;;2.08;;
68072;SDS011;54862;51.502;7.446;2023-08-06T01:15:43;4.03;;;1.80;;
68072;SDS011;54862;51.502;7.446;2023-08-06T01:18:11;4.15;;;2.03;;
68072;SDS011;54862;51.502;7.446;2023-08-06T01:20:37;4.50;;;2.17;;
68072;SDS011;54862;51.502;7.446;2023-08-06T01:23:03;3.38;;;1.90;;
68072;SDS011;54862;51.502;7.446;2023-08-06T01:25:31;3.90;;;1.98;;
68072;SDS011;54862;51.502;7.446;2023-08-06T01:28:01;3.63;;;1.80;;
68072;SDS011;54862;51.502;7.446;2023-08-06T01:30:30;3.42;;;2.00;;
68072;SDS011;54862;51.502;7.446;2023-08-06T01:33:01;3.60;;;1.88;;
68072;SDS011;54862;51.502;7.446;2023-08-06T01:35:30;3.08;;;1.92;;
68072;SDS011;54862;51.502;7.446;2023-08-06T01:37:56;3.25;;;1.88;;
68072;SDS011;54862;51.502;7.446;2023-08-06T01:40:22;4.18;;;2.45;;
68072;SDS011;54862;51.502;7.446;2023-08-06T01:42:48;3.25;;;2.00;;
68072;SDS011;54862;51.502;7.446;2023-08-06T01:45:14;3.17;;;2.10;;
68072;SDS011;54862;51.502;7.446;2023-08-06T01:47:40;3.75;;;1.80;;
68072;SDS011;54862;51.502;7.446;2023-08-06T01:50:06;4.38;;;2.20;;
68072;SDS011;54862;51.502;7.446;2023-08-06T01:52:32;3.15;;;1.83;;
68072;SDS011;54862;51.502;7.446;2023-08-06T01:54:57;3.67;;;1.88;;
68072;SDS011;54862;51.502;7.446;2023-08-06T01:57:23;3.47;;;2.00;;
68072;SDS011;54862;51.502;7.446;2023-08-06T01:59:49;2.45;;;1.90;;
68072;SDS011;54862;51.502;7.446;2023-08-06T02:02:15;3.63;;;2.28;;
68072;SDS011;54862;51.502;7.446;2023-08-06T02:04:41;3.40;;;2.00;;
68072;SDS011;54862;51.502;7.446;2023-08-06T02:07:07;3.40;;;1.92;;
68072;SDS011;54862;51.502;7.446;2023-08-06T02:09:33;2.85;;;1.83;;
68072;SDS011;54862;51.502;7.446;2023-08-06T02:12:00;4.43;;;2.17;;
68072;SDS011;54862;51.502;7.446;2023-08-06T02:14:27;3.85;;;2.20;;
68072;SDS011;54862;51.502;7.446;2023-08-06T02:16:53;3.83;;;2.13;;
68072;SDS011;54862;51.502;7.446;2023-08-06T02:19:19;3.85;;;2.17;;
68072;SDS011;54862;51.502;7.446;2023-08-06T02:21:47;4.38;;;2.30;;
68072;SDS011;54862;51.502;7.446;2023-08-06T02:24:13;5.38;;;2.20;;
68072;SDS011;54862;51.502;7.446;2023-08-06T02:26:39;3.15;;;2.20;;
68072;SDS011;54862;51.502;7.446;2023-08-06T02:29:05;3.53;;;1.98;;
68072;SDS011;54862;51.502;7.446;2023-08-06T02:31:31;4.30;;;2.10;;
68072;SDS011;54862;51.502;7.446;2023-08-06T02:33:57;5.03;;;2.30;;
68072;SDS011;54862;51.502;7.446;2023-08-06T02:36:28;2.90;;;1.90;;
68072;SDS011;54862;51.502;7.446;2023-08-06T02:38:54;4.78;;;2.40;;
68072;SDS011;54862;51.502;7.446;2023-08-06T02:41:20;4.25;;;2.42;;
68072;SDS011;54862;51.502;7.446;2023-08-06T02:43:46;4.20;;;2.13;;
68072;SDS011;54862;51.502;7.446;2023-08-06T02:46:12;4.78;;;2.42;;
68072;SDS011;54862;51.502;7.446;2023-08-06T02:48:40;4.10;;;2.53;;
68072;SDS011;54862;51.502;7.446;2023-08-06T02:51:11;7.85;;;2.65;;
68072;SDS011;54862;51.502;7.446;2023-08-06T02:53:37;3.47;;;2.30;;
68072;SDS011;54862;51.502;7.446;2023-08-06T02:56:04;4.50;;;2.28;;
68072;SDS011;54862;51.502;7.446;2023-08-06T02:58:32;3.88;;;2.20;;
68072;SDS011;54862;51.502;7.446;2023-08-06T03:00:58;4.30;;;2.20;;
68072;SDS011;54862;51.502;7.446;2023-08-06T03:03:24;4.50;;;2.38;;
68072;SDS011;54862;51.502;7.446;2023-08-06T03:05:53;4.65;;;2.38;;
68072;SDS011;54862;51.502;7.446;2023-08-06T03:08:21;3.28;;;2.10;;
68072;SDS011;54862;51.502;7.446;2023-08-06T03:10:48;3.10;;;2.05;;
68072;SDS011;54862;51.502;7.446;2023-08-06T03:13:14;4.47;;;2.50;;
68072;SDS011;54862;51.502;7.446;2023-08-06T03:15:40;2.95;;;1.90;;
68072;SDS011;54862;51.502;7.446;2023-08-06T03:18:06;4.05;;;2.42;;
68072;SDS011;54862;51.502;7.446;2023-08-06T03:20:32;2.85;;;1.85;;
68072;SDS011;54862;51.502;7.446;2023-08-06T03:23:01;4.20;;;1.90;;
68072;SDS011;54862;51.502;7.446;2023-08-06T03:25:26;6.97;;;2.85;;
68072;SDS011;54862;51.502;7.446;2023-08-06T03:27:52;5.47;;;2.60;;
68072;SDS011;54862;51.502;7.446;2023-08-06T03:30:18;3.97;;;2.40;;
68072;SDS011;54862;51.502;7.446;2023-08-06T03:32:44;4.25;;;2.00;;
68072;SDS011;54862;51.502;7.446;2023-08-06T03:35:13;3.42;;;2.10;;
68072;SDS011;54862;51.502;7.446;2023-08-06T03:37:39;5.18;;;2.28;;
68072;SDS011;54862;51.502;7.446;2023-08-06T03:40:07;4.43;;;2.30;;
68072;SDS011;54862;51.502;7.446;2023-08-06T03:42:33;4.50;;;2.33;;
68072;SDS011;54862;51.502;7.446;2023-08-06T03:44:59;3.67;;;2.40;;
68072;SDS011;54862;51.502;7.446;2023-08-06T03:47:25;4.35;;;2.20;;
68072;SDS011;54862;51.502;7.446;2023-08-06T03:49:51;3.38;;;1.73;;
68072;SDS011;54862;51.502;7.446;2023-08-06T03:52:17;3.88;;;2.40;;
68072;SDS011;54862;51.502;7.446;2023-08-06T03:54:43;3.28;;;1.80;;
68072;SDS011;54862;51.502;7.446;2023-08-06T03:57:09;3.30;;;2.22;;
68072;SDS011;54862;51.502;7.446;2023-08-06T03:59:37;4.47;;;2.33;;
68072;SDS011;54862;51.502;7.446;2023-08-06T04:02:03;3.92;;;2.40;;
68072;SDS011;54862;51.502;7.446;2023-08-06T04:04:32;3.72;;;2.15;;
68072;SDS011;54862;51.502;7.446;2023-08-06T04:06:58;4.32;;;2.08;;
68072;SDS011;54862;51.502;7.446;2023-08-06T04:09:24;5.20;;;2.30;;
68072;SDS011;54862;51.502;7.446;2023-08-06T04:11:52;3.90;;;2.28;;
68072;SDS011;54862;51.502;7.446;2023-08-06T04:14:18;4.30;;;2.33;;
68072;SDS011;54862;51.502;7.446;2023-08-06T04:16:44;3.55;;;1.98;;
68072;SDS011;54862;51.502;7.446;2023-08-06T04:19:10;3.85;;;2.10;;
68072;SDS011;54862;51.502;7.446;2023-08-06T04:21:36;2.85;;;1.85;;
68072;SDS011;54862;51.502;7.446;2023-08-06T04:24:02;5.13;;;2.60;;
68072;SDS011;54862;51.502;7.446;2023-08-06T04:26:28;4.55;;;2.50;;
68072;SDS011;54862;51.502;7.446;2023-08-06T04:28:54;4.68;;;2.15;;
68072;SDS011;54862;51.502;7.446;2023-08-06T04:31:21;3.83;;;1.95;;
68072;SDS011;54862;51.502;7.446;2023-08-06T04:33:49;5.00;;;2.45;;
68072;SDS011;54862;51.502;7.446;2023-08-06T04:36:15;4.47;;;2.40;;
68072;SDS011;54862;51.502;7.446;2023-08-06T04:38:41;4.30;;;2.30;;
68072;SDS011;54862;51.502;7.446;2023-08-06T04:41:10;3.38;;;2.10;;
68072;SDS011;54862;51.502;7.446;2023-08-06T04:43:36;4.18;;;2.40;;
68072;SDS011;54862;51.502;7.446;2023-08-06T04:46:02;5.35;;;2.35;;
68072;SDS011;54862;51.502;7.446;2023-08-06T04:48:30;5.10;;;2.63;;
68072;SDS011;54862;51.502;7.446;2023-08-06T04:50:56;3.08;;;2.13;;
68072;SDS011;54862;51.502;7.446;2023-08-06T04:53:25;3.40;;;2.15;;
68072;SDS011;54862;51.502;7.446;2023-08-06T04:55:53;8.18;;;2.30;;
68072;SDS011;54862;51.502;7.446;2023-08-06T04:58:22;3.75;;;2.13;;
68072;SDS011;54862;51.502;7.446;2023-08-06T05:00:48;4.13;;;2.25;;
68072;SDS011;54862;51.502;7.446;2023-08-06T05:03:14;6.88;;;2.45;;
68072;SDS011;54862;51.502;7.446;2023-08-06T05:05:40;5.43;;;2.40;;
68072;SDS011;54862;51.502;7.446;2023-08-06T05:08:06;4.95;;;2.40;;
68072;SDS011;54862;51.502;7.446;2023-08-06T05:10:32;5.60;;;2.63;;
68072;SDS011;54862;51.502;7.446;2023-08-06T05:12:58;4.60;;;2.28;;
68072;SDS011;54862;51.502;7.446;2023-08-06T05:15:24;4.07;;;2.45;;
68072;SDS011;54862;51.502;7.446;2023-08-06T05:17:50;2.72;;;2.00;;
68072;SDS011;54862;51.502;7.446;2023-08-06T05:20:16;3.45;;;2.20;;
68072;SDS011;54862;51.502;7.446;2023-08-06T05:22:43;4.20;;;2.17;;
68072;SDS011;54862;51.502;7.446;2023-08-06T05:25:12;4.03;;;2.10;;
68072;SDS011;54862;51.502;7.446;2023-08-06T05:27:38;4.78;;;2.58;;
68072;SDS011;54862;51.502;7.446;2023-08-06T05:30:04;3.33;;;1.92;;
68072;SDS011;54862;51.502;7.446;2023-08-06T05:32:31;3.95;;;2.00;;
68072;SDS011;54862;51.502;7.446;2023-08-06T05:34:56;4.30;;;2.25;;
68072;SDS011;54862;51.502;7.446;2023-08-06T05:37:22;3.60;;;1.95;;
68072;SDS011;54862;51.502;7.446;2023-08-06T05:39:48;3.05;;;2.00;;
68072;SDS011;54862;51.502;7.446;2023-08-06T05:42:14;4.10;;;2.05;;
68072;SDS011;54862;51.502;7.446;2023-08-06T05:44:40;4.28;;;2.20;;
68072;SDS011;54862;51.502;7.446;2023-08-06T05:47:06;4.13;;;2.22;;
68072;SDS011;54862;51.502;7.446;2023-08-06T05:49:32;4.40;;;2.42;;
68072;SDS011;54862;51.502;7.446;2023-08-06T05:51:58;6.07;;;2.58;;
68072;SDS011;54862;51.502;7.446;2023-08-06T05:54:24;2.92;;;1.90;;
68072;SDS011;54862;51.502;7.446;2023-08-06T05:56:53;3.65;;;2.13;;
68072;SDS011;54862;51.502;7.446;2023-08-06T05:59:19;3.35;;;2.10;;
68072;SDS011;54862;51.502;7.446;2023-08-06T06:01:45;1.98;;;1.73;;
68072;SDS011;54862;51.502;7.446;2023-08-06T06:04:11;2.72;;;1.85;;
68072;SDS011;54862;51.502;7.446;2023-08-06T06:06:37;3.58;;;2.13;;
68072;SDS011;54862;51.502;7.446;2023-08-06T06:09:03;3.17;;;1.85;;
68072;SDS011;54862;51.502;7.446;2023-08-06T06:11:29;2.70;;;2.10;;
68072;SDS011;54862;51.502;7.446;2023-08-06T06:13:57;4.00;;;2.40;;
68072;SDS011;54862;51.502;7.446;2023-08-06T06:16:23;3.33;;;1.98;;
68072;SDS011;54862;51.502;7.446;2023-08-06T06:18:49;3.30;;;2.00;;
68072;SDS011;54862;51.502;7.446;2023-08-06T06:21:15;5.70;;;2.40;;
68072;SDS011;54862;51.502;7.446;2023-08-06T06:23:41;4.10;;;2.00;;
68072;SDS011;54862;51.502;7.446;2023-08-06T06:26:07;4.95;;;2.35;;
68072;SDS011;54862;51.502;7.446;2023-08-06T06:28:36;3.42;;;2.00;;
68072;SDS011;54862;51.502;7.446;2023-08-06T06:31:02;4.72;;;2.15;;
68072;SDS011;54862;51.502;7.446;2023-08-06T06:33:28;3.67;;;2.22;;
68072;SDS011;54862;51.502;7.446;2023-08-06T06:35:54;3.85;;;2.20;;
68072;SDS011;54862;51.502;7.446;2023-08-06T06:38:20;4.35;;;2.20;;
68072;SDS011;54862;51.502;7.446;2023-08-06T06:40:56;3.38;;;2.00;;
68072;SDS011;54862;51.502;7.446;2023-08-06T06:43:22;4.05;;;2.38;;
68072;SDS011;54862;51.502;7.446;2023-08-06T06:46:00;3.72;;;2.10;;
68072;SDS011;54862;51.502;7.446;2023-08-06T06:48:26;4.00;;;2.10;;
68072;SDS011;54862;51.502;7.446;2023-08-06T06:50:55;2.25;;;1.75;;
68072;SDS011;54862;51.502;7.446;2023-08-06T06:53:26;3.25;;;2.15;;
68072;SDS011;54862;51.502;7.446;2023-08-06T06:55:53;3.90;;;2.20;;
68072;SDS011;54862;51.502;7.446;2023-08-06T06:58:19;3.22;;;1.90;;
68072;SDS011;54862;51.502;7.446;2023-08-06T07:00:46;4.60;;;2.15;;
68072;SDS011;54862;51.502;7.446;2023-08-06T07:03:12;3.10;;;2.00;;
68072;SDS011;54862;51.502;7.446;2023-08-06T07:05:38;3.97;;;2.05;;
68072;SDS011;54862;51.502;7.446;2023-08-06T07:08:04;4.40;;;2.10;;
68072;SDS011;54862;51.502;7.446;2023-08-06T07:10:30;4.10;;;2.10;;
68072;SDS011;54862;51.502;7.446;2023-08-06T07:12:58;4.20;;;2.20;;
68072;SDS011;54862;51.502;7.446;2023-08-06T07:15:25;3.88;;;1.92;;
68072;SDS011;54862;51.502;7.446;2023-08-06T07:17:51;6.05;;;2.33;;
68072;SDS011;54862;51.502;7.446;2023-08-06T07:20:17;5.78;;;2.22;;
68072;SDS011;54862;51.502;7.446;2023-08-06T07:22:43;4.10;;;2.25;;
68072;SDS011;54862;51.502;7.446;2023-08-06T07:25:09;3.60;;;2.22;;
68072;SDS011;54862;51.502;7.446;2023-08-06T07:27:38;3.20;;;2.00;;
68072;SDS011;54862;51.502;7.446;2023-08-06T07:30:04;5.28;;;2.70;;
68072;SDS011;54862;51.502;7.446;2023-08-06T07:32:30;2.95;;;2.20;;
68072;SDS011;54862;51.502;7.446;2023-08-06T07:34:56;3.70;;;2.20;;
68072;SDS011;54862;51.502;7.446;2023-08-06T07:37:28;3.75;;;2.17;;
68072;SDS011;54862;51.502;7.446;2023-08-06T07:39:55;3.35;;;1.80;;
68072;SDS011;54862;51.502;7.446;2023-08-06T07:42:23;4.22;;;2.17;;
68072;SDS011;54862;51.502;7.446;2023-08-06T07:44:53;2.75;;;2.25;;
68072;SDS011;54862;51.502;7.446;2023-08-06T07:47:20;2.60;;;1.80;;
68072;SDS011;54862;51.502;7.446;2023-08-06T07:49:48;2.97;;;1.83;;
68072;SDS011;54862;51.502;7.446;2023-08-06T07:52:14;3.38;;;2.08;;
68072;SDS011;54862;51.502;7.446;2023-08-06T07:54:40;6.10;;;2.03;;
68072;SDS011;54862;51.502;7.446;2023-08-06T07:57:07;3.63;;;2.30;;
68072;SDS011;54862;51.502;7.446;2023-08-06T07:59:33;3.10;;;1.70;;
68072;SDS011;54862;51.502;7.446;2023-08-06T08:02:01;3.25;;;1.92;;
68072;SDS011;54862;51.502;7.446;2023-08-06T08:04:27;3.15;;;1.98;;
68072;SDS011;54862;51.502;7.446;2023-08-06T08:06:53;2.63;;;1.80;;
68072;SDS011;54862;51.502;7.446;2023-08-06T08:09:19;3.65;;;2.05;;
68072;SDS011;54862;51.502;7.446;2023-08-06T08:11:45;3.70;;;2.08;;
68072;SDS011;54862;51.502;7.446;2023-08-06T08:14:14;2.92;;;1.70;;
68072;SDS011;54862;51.502;7.446;2023-08-06T08:16:40;4.10;;;1.88;;
68072;SDS011;54862;51.502;7.446;2023-08-06T08:19:06;3.22;;;2.03;;
68072;SDS011;54862;51.502;7.446;2023-08-06T08:21:35;2.35;;;1.70;;
68072;SDS011;54862;51.502;7.446;2023-08-06T08:24:01;2.13;;;1.67;;
68072;SDS011;54862;51.502;7.446;2023-08-06T08:26:27;4.80;;;2.17;;
68072;SDS011;54862;51.502;7.446;2023-08-06T08:28:56;1.80;;;1.60;;
68072;SDS011;54862;51.502;7.446;2023-08-06T08:31:22;3.95;;;2.10;;
68072;SDS011;54862;51.502;7.446;2023-08-06T08:33:48;1.83;;;1.60;;
68072;SDS011;54862;51.502;7.446;2023-08-06T08:36:14;3.97;;;2.00;;
68072;SDS011;54862;51.502;7.446;2023-08-06T08:38:40;4.22;;;2.20;;
68072;SDS011;54862;51.502;7.446;2023-08-06T08:41:06;4.93;;;2.30;;
68072;SDS011;54862;51.502;7.446;2023-08-06T08:43:32;4.38;;;2.25;;
68072;SDS011;54862;51.502;7.446;2023-08-06T08:46:00;3.78;;;2.25;;
68072;SDS011;54862;51.502;7.446;2023-08-06T08:48:26;2.70;;;1.90;;
68072;SDS011;54862;51.502;7.446;2023-08-06T08:50:53;3.22;;;2.10;;
68072;SDS011;54862;51.502;7.446;2023-08-06T08:53:19;3.67;;;2.22;;
68072;SDS011;54862;51.502;7.446;2023-08-06T08:55:47;3.40;;;1.80;;
68072;SDS011;54862;51.502;7.446;2023-08-06T08:58:16;2.70;;;1.70;;
68072;SDS011;54862;51.502;7.446;2023-08-06T09:00:42;4.93;;;1.85;;
68072;SDS011;54862;51.502;7.446;2023-08-06T09:03:08;1.67;;;1.58;;
68072;SDS011;54862;51.502;7.446;2023-08-06T09:05:34;5.70;;;1.77;;
68072;SDS011;54862;51.502;7.446;2023-08-06T09:08:02;2.45;;;1.60;;
68072;SDS011;54862;51.502;7.446;2023-08-06T09:10:29;3.03;;;1.40;;
68072;SDS011;54862;51.502;7.446;2023-08-06T09:12:58;3.33;;;1.80;;
68072;SDS011;54862;51.502;7.446;2023-08-06T09:15:26;2.72;;;1.80;;
68072;SDS011;54862;51.502;7.446;2023-08-06T09:17:52;2.05;;;1.52;;
68072;SDS011;54862;51.502;7.446;2023-08-06T09:20:18;2.20;;;1.63;;
68072;SDS011;54862;51.502;7.446;2023-08-06T09:22:47;2.83;;;1.70;;
68072;SDS011;54862;51.502;7.446;2023-08-06T09:25:22;3.40;;;2.00;;
68072;SDS011;54862;51.502;7.446;2023-08-06T09:27:50;2.17;;;1.83;;
68072;SDS011;54862;51.502;7.446;2023-08-06T09:30:50;3.13;;;1.80;;
68072;SDS011;54862;51.502;7.446;2023-08-06T09:33:11;2.72;;;1.83;;
68072;SDS011;54862;51.502;7.446;2023-08-06T09:35:43;3.80;;;2.05;;
68072;SDS011;54862;51.502;7.446;2023-08-06T09:38:09;3.28;;;2.00;;
68072;SDS011;54862;51.502;7.446;2023-08-06T09:40:36;3.22;;;1.90;;
68072;SDS011;54862;51.502;7.446;2023-08-06T09:43:03;3.47;;;1.73;;
68072;SDS011;54862;51.502;7.446;2023-08-06T09:45:35;3.65;;;1.73;;
68072;SDS011;54862;51.502;7.446;2023-08-06T09:48:05;4.88;;;2.15;;
68072;SDS011;54862;51.502;7.446;2023-08-06T09:50:32;2.97;;;1.98;;
68072;SDS011;54862;51.502;7.446;2023-08-06T09:52:59;3.72;;;2.08;;
68072;SDS011;54862;51.502;7.446;2023-08-06T09:55:26;5.13;;;2.20;;
68072;SDS011;54862;51.502;7.446;2023-08-06T09:57:55;3.47;;;2.22;;
68072;SDS011;54862;51.502;7.446;2023-08-06T10:00:22;3.55;;;1.80;;
68072;SDS011;54862;51.502;7.446;2023-08-06T10:02:48;6.00;;;2.47;;
68072;SDS011;54862;51.502;7.446;2023-08-06T10:05:19;4.68;;;2.83;;
68072;SDS011;54862;51.502;7.446;2023-08-06T10:07:46;4.32;;;2.65;;
68072;SDS011;54862;51.502;7.446;2023-08-06T10:10:12;5.35;;;2.83;;
68072;SDS011;54862;51.502;7.446;2023-08-06T10:12:40;5.65;;;3.15;;
68072;SDS011;54862;51.502;7.446;2023-08-06T10:15:08;5.75;;;2.83;;
68072;SDS011;54862;51.502;7.446;2023-08-06T10:17:35;6.13;;;3.00;;
68072;SDS011;54862;51.502;7.446;2023-08-06T10:20:03;6.78;;;3.47;;
68072;SDS011;54862;51.502;7.446;2023-08-06T10:22:34;5.28;;;2.85;;
68072;SDS011;54862;51.502;7.446;2023-08-06T10:25:01;4.40;;;2.35;;
68072;SDS011;54862;51.502;7.446;2023-08-06T10:27:41;5.63;;;2.60;;
68072;SDS011;54862;51.502;7.446;2023-08-06T10:35:40;4.82;;;2.50;;
68072;SDS011;54862;51.502;7.446;2023-08-06T10:40:41;5.43;;;2.50;;
68072;SDS011;54862;51.502;7.446;2023-08-06T10:43:12;4.10;;;2.20;;
68072;SDS011;54862;51.502;7.446;2023-08-06T10:45:52;4.00;;;2.25;;
68072;SDS011;54862;51.502;7.446;2023-08-06T10:48:32;4.75;;;2.72;;
68072;SDS011;54862;51.502;7.446;2023-08-06T10:50:59;4.63;;;2.35;;
68072;SDS011;54862;51.502;7.446;2023-08-06T10:53:28;3.97;;;2.38;;
68072;SDS011;54862;51.502;7.446;2023-08-06T10:55:54;4.00;;;2.22;;
68072;SDS011;54862;51.502;7.446;2023-08-06T10:58:20;3.58;;;1.90;;
68072;SDS011;54862;51.502;7.446;2023-08-06T11:00:49;5.28;;;2.47;;
68072;SDS011;54862;51.502;7.446;2023-08-06T11:03:15;5.18;;;2.38;;
68072;SDS011;54862;51.502;7.446;2023-08-06T11:05:41;3.80;;;2.10;;
68072;SDS011;54862;51.502;7.446;2023-08-06T11:08:07;2.78;;;1.90;;
68072;SDS011;54862;51.502;7.446;2023-08-06T11:10:33;3.78;;;2.10;;
68072;SDS011;54862;51.502;7.446;2023-08-06T11:13:03;4.85;;;2.40;;
68072;SDS011;54862;51.502;7.446;2023-08-06T11:15:32;5.10;;;2.58;;
68072;SDS011;54862;51.502;7.446;2023-08-06T11:17:58;3.80;;;2.30;;
68072;SDS011;54862;51.502;7.446;2023-08-06T11:20:27;3.53;;;2.42;;
68072;SDS011;54862;51.502;7.446;2023-08-06T11:22:53;3.97;;;2.08;;
68072;SDS011;54862;51.502;7.446;2023-08-06T11:25:20;4.05;;;2.00;;
68072;SDS011;54862;51.502;7.446;2023-08-06T11:27:49;3.50;;;2.35;;
68072;SDS011;54862;51.502;7.446;2023-08-06T11:30:16;4.10;;;2.30;;
68072;SDS011;54862;51.502;7.446;2023-08-06T11:32:45;3.67;;;2.42;;
68072;SDS011;54862;51.502;7.446;2023-08-06T11:35:15;4.03;;;2.22;;
68072;SDS011;54862;51.502;7.446;2023-08-06T11:37:45;3.08;;;2.00;;
68072;SDS011;54862;51.502;7.446;2023-08-06T11:40:14;3.00;;;1.85;;
68072;SDS011;54862;51.502;7.446;2023-08-06T11:42:40;4.40;;;2.25;;
68072;SDS011;54862;51.502;7.446;2023-08-06T11:45:07;4.50;;;2.55;;
68072;SDS011;54862;51.502;7.446;2023-08-06T11:47:39;4.65;;;2.20;;
68072;SDS011;54862;51.502;7.446;2023-08-06T11:50:05;3.33;;;2.10;;
68072;SDS011;54862;51.502;7.446;2023-08-06T11:52:34;1.83;;;1.70;;
68072;SDS011;54862;51.502;7.446;2023-08-06T11:57:31;3.60;;;2.17;;
68072;SDS011;54862;51.502;7.446;2023-08-06T12:00:01;4.80;;;2.10;;
68072;SDS011;54862;51.502;7.446;2023-08-06T12:02:28;2.97;;;1.90;;
68072;SDS011;54862;51.502;7.446;2023-08-06T12:04:59;2.65;;;1.90;;
68072;SDS011;54862;51.502;7.446;2023-08-06T12:07:32;3.92;;;2.30;;
68072;SDS011;54862;51.502;7.446;2023-08-06T12:09:58;2.17;;;1.80;;
68072;SDS011;54862;51.502;7.446;2023-08-06T12:12:25;2.40;;;1.90;;
68072;SDS011;54862;51.502;7.446;2023-08-06T12:14:51;3.20;;;2.03;;
68072;SDS011;54862;51.502;7.446;2023-08-06T12:17:17;2.35;;;1.98;;
68072;SDS011;54862;51.502;7.446;2023-08-06T12:19:45;3.10;;;2.00;;
68072;SDS011;54862;51.502;7.446;2023-08-06T12:22:12;5.78;;;2.10;;
68072;SDS011;54862;51.502;7.446;2023-08-06T12:24:39;4.18;;;2.60;;
68072;SDS011;54862;51.502;7.446;2023-08-06T12:27:05;3.42;;;2.05;;
68072;SDS011;54862;51.502;7.446;2023-08-06T12:29:31;4.53;;;2.45;;
68072;SDS011;54862;51.502;7.446;2023-08-06T12:32:01;3.72;;;2.33;;
68072;SDS011;54862;51.502;7.446;2023-08-06T12:34:27;3.95;;;2.22;;
68072;SDS011;54862;51.502;7.446;2023-08-06T12:36:56;6.00;;;2.58;;
68072;SDS011;54862;51.502;7.446;2023-08-06T12:39:22;4.10;;;2.38;;
68072;SDS011;54862;51.502;7.446;2023-08-06T12:41:48;5.13;;;2.75;;
68072;SDS011;54862;51.502;7.446;2023-08-06T12:44:14;4.75;;;2.30;;
68072;SDS011;54862;51.502;7.446;2023-08-06T12:46:40;4.43;;;2.25;;
68072;SDS011;54862;51.502;7.446;2023-08-06T12:49:06;4.30;;;2.10;;
68072;SDS011;54862;51.502;7.446;2023-08-06T12:51:32;3.50;;;2.05;;
68072;SDS011;54862;51.502;7.446;2023-08-06T12:53:59;3.63;;;1.88;;
68072;SDS011;54862;51.502;7.446;2023-08-06T12:56:25;5.10;;;2.30;;
68072;SDS011;54862;51.502;7.446;2023-08-06T12:58:50;3.35;;;1.95;;
68072;SDS011;54862;51.502;7.446;2023-08-06T13:01:19;6.47;;;1.98;;
68072;SDS011;54862;51.502;7.446;2023-08-06T13:03:45;4.10;;;2.10;;
68072;SDS011;54862;51.502;7.446;2023-08-06T13:06:11;2.75;;;1.80;;
68072;SDS011;54862;51.502;7.446;2023-08-06T13:08:37;2.30;;;1.60;;
68072;SDS011;54862;51.502;7.446;2023-08-06T13:11:05;2.80;;;1.75;;
68072;SDS011;54862;51.502;7.446;2023-08-06T13:13:34;2.40;;;1.60;;
68072;SDS011;54862;51.502;7.446;2023-08-06T13:16:00;1.60;;;1.50;;
68072;SDS011;54862;51.502;7.446;2023-08-06T13:18:30;2.33;;;1.67;;
68072;SDS011;54862;51.502;7.446;2023-08-06T13:20:59;2.00;;;1.40;;
68072;SDS011;54862;51.502;7.446;2023-08-06T13:23:25;1.25;;;1.13;;
68072;SDS011;54862;51.502;7.446;2023-08-06T13:25:51;1.30;;;1.20;;
68072;SDS011;54862;51.502;7.446;2023-08-06T13:28:19;1.33;;;1.20;;
68072;SDS011;54862;51.502;7.446;2023-08-06T13:30:45;1.23;;;1.15;;
68072;SDS011;54862;51.502;7.446;2023-08-06T13:33:11;1.42;;;1.33;;
68072;SDS011;54862;51.502;7.446;2023-08-06T13:35:37;0.90;;;0.90;;
68072;SDS011;54862;51.502;7.446;2023-08-06T13:38:06;1.00;;;1.00;;
68072;SDS011;54862;51.502;7.446;2023-08-06T13:40:32;0.90;;;0.90;;
68072;SDS011;54862;51.502;7.446;2023-08-06T13:42:59;1.00;;;1.00;;
68072;SDS011;54862;51.502;7.446;2023-08-06T13:45:25;0.88;;;0.88;;
68072;SDS011;54862;51.502;7.446;2023-08-06T13:47:54;2.55;;;1.10;;
68072;SDS011;54862;51.502;7.446;2023-08-06T13:50:20;1.17;;;1.08;;
68072;SDS011;54862;51.502;7.446;2023-08-06T13:52:47;1.10;;;1.10;;
68072;SDS011;54862;51.502;7.446;2023-08-06T13:55:13;1.23;;;1.15;;
68072;SDS011;54862;51.502;7.446;2023-08-06T13:57:39;1.05;;;1.05;;
68072;SDS011;54862;51.502;7.446;2023-08-06T14:00:05;0.98;;;0.98;;
68072;SDS011;54862;51.502;7.446;2023-08-06T14:02:34;1.13;;;1.13;;
68072;SDS011;54862;51.502;7.446;2023-08-06T14:05:02;0.93;;;0.93;;
68072;SDS011;54862;51.502;7.446;2023-08-06T14:07:28;2.08;;;1.27;;
68072;SDS011;54862;51.502;7.446;2023-08-06T14:09:54;1.00;;;1.00;;
68072;SDS011;54862;51.502;7.446;2023-08-06T14:12:22;1.10;;;1.10;;
68072;SDS011;54862;51.502;7.446;2023-08-06T14:14:51;1.20;;;1.20;;
68072;SDS011;54862;51.502;7.446;2023-08-06T14:17:17;2.65;;;1.38;;
68072;SDS011;54862;51.502;7.446;2023-08-06T14:19:43;1.25;;;1.15;;
68072;SDS011;54862;51.502;7.446;2023-08-06T14:22:09;0.93;;;0.93;;
68072;SDS011;54862;51.502;7.446;2023-08-06T14:24:35;1.02;;;1.02;;
68072;SDS011;54862;51.502;7.446;2023-08-06T14:27:01;1.50;;;1.40;;
68072;SDS011;54862;51.502;7.446;2023-08-06T14:29:29;1.00;;;0.90;;
68072;SDS011;54862;51.502;7.446;2023-08-06T14:31:57;1.65;;;1.20;;
68072;SDS011;54862;51.502;7.446;2023-08-06T14:34:26;1.20;;;1.20;;
68072;SDS011;54862;51.502;7.446;2023-08-06T14:36:52;1.30;;;1.20;;
68072;SDS011;54862;51.502;7.446;2023-08-06T14:39:18;1.10;;;1.10;;
68072;SDS011;54862;51.502;7.446;2023-08-06T14:41:44;1.00;;;1.00;;
68072;SDS011;54862;51.502;7.446;2023-08-06T14:44:10;1.70;;;1.60;;
68072;SDS011;54862;51.502;7.446;2023-08-06T14:46:36;1.05;;;1.05;;
68072;SDS011;54862;51.502;7.446;2023-08-06T14:49:02;1.20;;;1.10;;
68072;SDS011;54862;51.502;7.446;2023-08-06T14:51:28;1.00;;;1.00;;
68072;SDS011;54862;51.502;7.446;2023-08-06T14:53:54;1.27;;;1.20;;
68072;SDS011;54862;51.502;7.446;2023-08-06T14:56:23;1.40;;;1.23;;
68072;SDS011;54862;51.502;7.446;2023-08-06T14:58:49;1.17;;;1.08;;
68072;SDS011;54862;51.502;7.446;2023-08-06T15:01:15;1.00;;;1.00;;
68072;SDS011;54862;51.502;7.446;2023-08-06T15:03:43;4.05;;;1.30;;